WAGO2: Chouteau Lock And Dam (L&D 17)

Data processed at Mon Dec 17 2018 23:32


All information presented herein is the property of the government of the United States of America and may be revised or deleted at any time without prior notice.
Dissemination of this information without the expressed written consent of the Public Affairs Office, Tulsa District U.S. Army Corps of Engineers is strictly prohibited.
These data are gathered electronically and, as presented, have not undergone any form of quality control. These data are not guaranteed to be valid or correct.
Go to home page.
Go to station list.
Go to home page.

Upstream stations:

Downstream station:
Previous Day
Next Day
Current Day
    
SHEF ID:       WAGO2     Chouteau LD17
STATION TYPE:  NAVIGATION LOCK
Normal Pool:  Bottom =   511.50, Top =   511.50

               PRECIP ELEVATION   STORAGE   TW-ELEV    INFLOW   RELEASE  AIR-TEMP  WIND-DIRWIND-SPEED REL-HUMID SOLAR-RAD   VOLTAGE  BAT-LOAD
                   in        ft     ac-ft        ft       cfs       cfs         F       deg       mph         %      W/m2      volt      volt
              Ccp-Rev   Ccp-Rev   Ccp-Rev   Ccp-Rev  Regi-Rev  Regi-Rev   Ccp-Rev   Ccp-Rev   Ccp-Rev   Ccp-Rev   Ccp-Rev   Ccp-Rev   Ccp-Rev
(US/Central)
12/17 00:00      0.00    511.52     23750    490.70      3891      4850     35.92    103.00      0.10     95.23      0.00     13.55     13.09
12/17 01:00      0.00    511.56     23841    490.56      2932      4850     34.86    355.90      0.40     96.13      0.00     13.59     13.10
12/17 02:00      0.00    511.45     23591    490.47      2741      3350     34.81     61.70      0.10     96.62      0.00     13.57     13.09
12/17 03:00      0.00    511.32     23296    490.40      2096      3350     34.07     63.20      0.20     96.61      0.00     13.56     13.09
12/17 04:00      0.00    511.33     23319    490.26      1616      3350     32.54    357.00      0.10     96.85      0.00     13.53     13.10
12/17 05:00      0.00    511.31     23274    490.27      1668      1350     32.40    348.50      0.10     97.12      0.00     13.55     13.09
12/17 06:00      0.00    511.39     23455    490.07      1720      1350     32.23    326.70      0.80     96.77      0.00     13.55     13.09
12/17 07:00      0.00    511.36     23387    490.31      1048       223     31.19    340.60      0.80     94.44      0.00     13.55     13.09
12/17 08:00      0.00    511.35     23364    490.51       888       223     31.84    323.80      1.70     94.07      3.90     13.51     13.10
12/17 09:00      0.00    511.40     23478    490.35       178       223     34.03    354.20      4.20     87.17    125.60     13.55     13.09
12/17 10:00      0.00    511.41     23501    490.34       315       223     39.13    338.30      2.60     79.34    292.50     13.55     13.09
12/17 11:00      0.00    511.38     23433    490.33       571       223     45.86    337.60      2.20     64.92    435.00     13.57     13.09
12/17 12:00      0.00    511.41     23501    490.32       618       223     52.56     17.70      2.50     50.47    437.00     13.58     13.09
12/17 13:00      0.00    511.46     23614    490.31       663       223     55.90     22.00      3.40     43.91    305.30     13.56     13.10
12/17 14:00      0.00    511.47     23637    490.33       817       223     58.82    352.80      2.60     38.44    510.60     13.56     13.10
12/17 15:00      0.00    511.47     23637    490.28      1047       223     60.13    322.20      2.90     35.17    273.00     13.51     13.10
12/17 16:00      0.00    511.49     23682    490.24       917       223     58.84    324.80      3.20     40.38    131.70     13.53     13.10
12/17 17:00      0.00    511.56     23841    490.23       817       223     56.84    309.90      1.10     46.36     48.20     13.50     13.11
12/17 18:00      0.00    511.60     23932    490.30       772       223     51.49    359.50      1.20     61.55      0.00     13.57     13.09
12/17 19:00      0.00    511.58     23887    490.22       618       223     45.97    125.20      0.80     77.45      0.00     13.56     13.09
12/17 20:00      0.00    511.57     23864    490.21      1552       223     43.09    100.90      0.20     82.14      0.00     13.53     13.09
12/17 21:00      0.00    511.56     23841    490.20      1363       223     41.11    112.70      0.30     87.32      0.00     13.58     13.10
12/17 22:00      0.00    511.80     24386    490.20      4089       223     39.04     79.80      0.50     89.05      0.00     13.59     13.09
12/17 23:00      ----      ----      ----      ----      -901      -901      ----      ----      ----      ----      ----      ----      ----